METAR Formatted Surface Weather Observation
Issued by NWS Los Angeles, CA

Home | Current Version | Previous Version | Text Only | Print | Product List | Glossary On
Versions: 1 2 3 4 5 6 7 8 9 10 11 12 13 14 15 16 17 18 19 20 21 22 23 24
000
SAUS46 KLOX 271853
MTRSMX
METAR KSMX 271851Z VRB03KT 10SM SCT040 20/09 A3021 RMK AO2 SLP232
T02000094 $



USA.gov is the U.S. government's official web portal to all federal, state and local government web resources and services.